Map

Track Data

SID SEASON NUMBER BASIN SUBBASIN NAME ISO_TIME NATURE LAT LON WMO_WIND WMO_PRES WMO_AGENCY TRACK_TYPE DIST2LAND LANDFALL IFLAG USA_AGENCY USA_ATCF_ID USA_LAT USA_LON USA_RECORD USA_STATUS USA_WIND USA_PRES USA_SSHS USA_R34_NE USA_R34_SE USA_R34_SW USA_R34_NW USA_R50_NE USA_R50_SE USA_R50_SW USA_R50_NW USA_R64_NE USA_R64_SE USA_R64_SW USA_R64_NW USA_POCI USA_ROCI USA_RMW USA_EYE TOKYO_LAT TOKYO_LON TOKYO_GRADE TOKYO_WIND TOKYO_PRES TOKYO_R50_DIR TOKYO_R50_LONG TOKYO_R50_SHORT TOKYO_R30_DIR TOKYO_R30_LONG TOKYO_R30_SHORT TOKYO_LAND CMA_LAT CMA_LON CMA_CAT CMA_WIND CMA_PRES HKO_LAT HKO_LON HKO_CAT HKO_WIND HKO_PRES NEWDELHI_LAT NEWDELHI_LON NEWDELHI_GRADE NEWDELHI_WIND NEWDELHI_PRES NEWDELHI_CI NEWDELHI_DP NEWDELHI_POCI REUNION_LAT REUNION_LON REUNION_TYPE REUNION_WIND REUNION_PRES REUNION_TNUM REUNION_CI REUNION_RMW REUNION_R34_NE REUNION_R34_SE REUNION_R34_SW REUNION_R34_NW REUNION_R50_NE REUNION_R50_SE REUNION_R50_SW REUNION_R50_NW REUNION_R64_NE REUNION_R64_SE REUNION_R64_SW REUNION_R64_NW BOM_LAT BOM_LON BOM_TYPE BOM_WIND BOM_PRES BOM_TNUM BOM_CI BOM_RMW BOM_R34_NE BOM_R34_SE BOM_R34_SW BOM_R34_NW BOM_R50_NE BOM_R50_SE BOM_R50_SW BOM_R50_NW BOM_R64_NE BOM_R64_SE BOM_R64_SW BOM_R64_NW BOM_ROCI BOM_POCI BOM_EYE BOM_POS_METHOD BOM_PRES_METHOD NADI_LAT NADI_LON NADI_CAT NADI_WIND NADI_PRES WELLINGTON_LAT WELLINGTON_LON WELLINGTON_WIND WELLINGTON_PRES DS824_LAT DS824_LON DS824_STAGE DS824_WIND DS824_PRES TD9636_LAT TD9636_LON TD9636_STAGE TD9636_WIND TD9636_PRES TD9635_LAT TD9635_LON TD9635_WIND TD9635_PRES TD9635_ROCI NEUMANN_LAT NEUMANN_LON NEUMANN_CLASS NEUMANN_WIND NEUMANN_PRES MLC_LAT MLC_LON MLC_CLASS MLC_WIND MLC_PRES USA_GUST BOM_GUST BOM_GUST_PER REUNION_GUST REUNION_GUST_PER USA_SEAHGT USA_SEARAD_NE USA_SEARAD_SE USA_SEARAD_SW USA_SEARAD_NW STORM_SPEED STORM_DIR
1903271N15118 1903 49 WP MM NOT_NAMED 1903-09-27 16:00:00 NR 15.3000 118.000 main 198 198 __________O___ -1 15.3000 118.000 7 9 287
1903271N15118 1903 49 WP MM NOT_NAMED 1903-09-27 18:00:00 NR 15.3894 117.691 main 224 224 __________P___ -1 15.3894 117.691 7 9 287
1903271N15118 1903 49 WP MM NOT_NAMED 1903-09-27 21:00:00 NR 15.5208 117.230 main 273 273 __________P___ -1 15.5208 117.230 7 9 286
1903271N15118 1903 49 WP MM NOT_NAMED 1903-09-28 00:00:00 NR 15.6464 116.778 main 313 312 __________P___ -1 15.6464 116.778 7 9 286
1903271N15118 1903 49 WP MM NOT_NAMED 1903-09-28 03:00:00 NR 15.7634 116.341 main 364 364 __________P___ -1 15.7634 116.341 7 9 285
1903271N15118 1903 49 WP MM NOT_NAMED 1903-09-28 04:00:00 NR 15.8000 116.200 main 375 375 __________O___ -1 15.8000 116.200 3 8 285
1903271N15118 1903 49 WP MM NOT_NAMED 1903-09-28 06:00:00 NR 15.8690 115.924 main 406 406 __________P___ -1 15.8690 115.924 3 8 284
1903271N15118 1903 49 WP MM NOT_NAMED 1903-09-28 09:00:00 NR 15.9602 115.524 main 449 449 __________P___ -1 15.9602 115.524 3 8 282
1903271N15118 1903 49 WP MM NOT_NAMED 1903-09-28 12:00:00 NR 16.0341 115.130 main 491 491 __________P___ -1 16.0341 115.130 3 8 280
1903271N15118 1903 49 WP MM NOT_NAMED 1903-09-28 15:00:00 NR 16.0874 114.734 main 534 529 __________P___ -1 16.0874 114.734 3 8 277
1903271N15118 1903 49 WP MM NOT_NAMED 1903-09-28 16:00:00 NR 16.1000 114.600 main 529 503 __________O___ -1 16.1000 114.600 4 8 275
1903271N15118 1903 49 WP MM NOT_NAMED 1903-09-28 18:00:00 NR 16.1196 114.322 main 503 470 __________P___ -1 16.1196 114.322 4 8 273
1903271N15118 1903 49 WP MM NOT_NAMED 1903-09-28 21:00:00 NR 16.1303 113.899 main 470 438 __________P___ -1 16.1303 113.899 4 8 270
1903271N15118 1903 49 WP MM NOT_NAMED 1903-09-29 00:00:00 NR 16.1240 113.472 main 438 400 __________P___ -1 16.1240 113.472 4 8 268
1903271N15118 1903 49 WP MM NOT_NAMED 1903-09-29 03:00:00 NR 16.1070 113.043 main 400 393 __________P___ -1 16.1070 113.043 4 8 268
1903271N15118 1903 49 WP MM NOT_NAMED 1903-09-29 04:00:00 NR 16.1000 112.900 main 393 373 __________O___ -1 16.1000 112.900 4 8 269
1903271N15118 1903 49 WP MM NOT_NAMED 1903-09-29 06:00:00 NR 16.0969 112.606 main 373 347 __________P___ -1 16.0969 112.606 4 8 269
1903271N15118 1903 49 WP MM NOT_NAMED 1903-09-29 09:00:00 NR 16.0861 112.165 main 347 314 __________P___ -1 16.0861 112.165 4 8 268
1903271N15118 1903 49 WP MM NOT_NAMED 1903-09-29 12:00:00 NR 16.0625 111.735 main 314 272 __________P___ -1 16.0625 111.735 4 8 265
1903271N15118 1903 49 WP MM NOT_NAMED 1903-09-29 15:00:00 NR 16.0196 111.328 main 272 262 __________P___ -1 16.0196 111.328 4 8 263
1903271N15118 1903 49 WP MM NOT_NAMED 1903-09-29 16:00:00 NR 16.0000 111.200 main 262 242 __________O___ -1 16.0000 111.200 4 7 259
1903271N15118 1903 49 WP MM NOT_NAMED 1903-09-29 18:00:00 NR 15.9520 110.956 main 242 198 __________P___ -1 15.9520 110.956 4 7 256
1903271N15118 1903 49 WP MM NOT_NAMED 1903-09-29 21:00:00 NR 15.8617 110.617 main 198 164 __________P___ -1 15.8617 110.617 4 7 253
1903271N15118 1903 49 WP MM NOT_NAMED 1903-09-30 00:00:00 NR 15.7552 110.301 main 164 126 __________P___ -1 15.7552 110.301 4 6 250
1903271N15118 1903 49 WP MM NOT_NAMED 1903-09-30 03:00:00 NR 15.6395 109.999 main 126 116 __________P___ -1 15.6395 109.999 4 6 248
1903271N15118 1903 49 WP MM NOT_NAMED 1903-09-30 04:00:00 NR 15.6000 109.900 main 116 __________O___ -1 15.6000 109.900 4 6 248

Digital Typhoon Data and Search

About IBTrACS Database

This database is a web-friendly format of International Best Track Archive for Climate Stewardship (IBTrACS), a global best track data archive curated by NOAA dating back to 1842.

Updated: 2021-12-03